Time;durP1;ratioP1;P1;durP2;ratioP2;P2;SDS_P1;SDS_P2;PMS_P1;PMS_P2;Temp;Humidity;BMP_temperature;BMP_pressure;BME280_temperature;BME280_humidity;BME280_pressure;Samples;Min_cycle;Max_cycle;Signal;HPM_P1;HPM_P2
2023/12/10 00:00:38;;;;;;;30.70;5.17;;;8.00;99.90;;;;;;494026;241;27564;-72
2023/12/10 00:02:40;;;;;;;26.43;5.10;;;8.00;99.90;;;;;;494007;241;27857;-72
2023/12/10 00:04:41;;;;;;;31.13;6.07;;;8.00;99.90;;;;;;494002;241;28054;-71
2023/12/10 00:06:42;;;;;;;34.13;6.03;;;8.00;99.90;;;;;;493952;241;28039;-71
2023/12/10 00:08:43;;;;;;;38.30;6.83;;;8.00;99.90;;;;;;493992;241;27984;-73
2023/12/10 00:10:45;;;;;;;25.30;6.20;;;8.00;99.90;;;;;;493931;241;27825;-71
2023/12/10 00:12:46;;;;;;;30.67;5.63;;;8.10;99.90;;;;;;493990;241;28109;-72
2023/12/10 00:14:53;;;;;;;27.53;5.80;;;8.00;99.90;;;;;;494058;237;27871;-72
2023/12/10 00:16:48;;;;;;;26.27;5.57;;;8.10;99.90;;;;;;493508;241;28054;-71
2023/12/10 00:18:50;;;;;;;32.27;6.47;;;8.00;99.90;;;;;;494067;241;28001;-71
2023/12/10 00:20:51;;;;;;;29.70;6.50;;;8.00;99.90;;;;;;494041;241;28502;-73
2023/12/10 00:22:52;;;;;;;29.87;5.37;;;8.00;99.90;;;;;;494080;241;27719;-71
2023/12/10 00:24:53;;;;;;;34.87;6.87;;;8.00;99.90;;;;;;494086;241;27937;-72
2023/12/10 00:26:55;;;;;;;31.13;6.37;;;8.00;99.90;;;;;;493993;241;27461;-72
2023/12/10 00:28:56;;;;;;;28.80;6.73;;;8.10;99.90;;;;;;494049;241;27983;-71
2023/12/10 00:30:57;;;;;;;29.80;5.90;;;8.10;99.90;;;;;;494124;241;27981;-72
2023/12/10 00:32:58;;;;;;;34.97;6.00;;;8.10;99.90;;;;;;494057;241;28064;-72
2023/12/10 00:35:00;;;;;;;31.63;5.70;;;8.10;99.90;;;;;;494063;241;27971;-72
2023/12/10 00:37:01;;;;;;;34.63;7.00;;;8.10;99.90;;;;;;494067;241;27903;-71
2023/12/10 00:39:04;;;;;;;42.10;6.80;;;8.10;99.90;;;;;;494084;241;28004;-72
2023/12/10 00:41:03;;;;;;;35.60;5.93;;;8.00;99.90;;;;;;493821;241;28607;-74
2023/12/10 00:43:05;;;;;;;56.13;7.17;;;8.00;99.90;;;;;;494024;241;28266;-71
2023/12/10 00:45:06;;;;;;;30.67;5.30;;;8.00;99.90;;;;;;494022;241;29069;-71
2023/12/10 00:47:07;;;;;;;36.07;6.00;;;8.00;99.90;;;;;;494008;241;28004;-71
2023/12/10 00:49:09;;;;;;;25.50;5.90;;;8.00;99.90;;;;;;493982;241;28070;-72
2023/12/10 00:51:10;;;;;;;36.50;6.70;;;8.00;99.90;;;;;;494032;241;28070;-73
2023/12/10 00:53:11;;;;;;;51.83;7.67;;;8.00;99.90;;;;;;494032;241;27788;-71
2023/12/10 00:55:12;;;;;;;26.40;6.60;;;8.00;99.90;;;;;;494105;241;28023;-72
2023/12/10 00:57:13;;;;;;;33.83;6.70;;;8.00;99.90;;;;;;494040;241;27927;-72
2023/12/10 00:59:15;;;;;;;30.43;6.30;;;8.00;99.90;;;;;;494073;241;27881;-72
2023/12/10 01:01:16;;;;;;;24.03;6.07;;;8.00;99.90;;;;;;494101;241;27946;-71
2023/12/10 01:03:18;;;;;;;27.47;5.83;;;8.00;99.90;;;;;;494012;241;27985;-71
2023/12/10 01:05:19;;;;;;;26.47;6.03;;;7.90;99.90;;;;;;493994;241;28085;-71
2023/12/10 01:07:20;;;;;;;27.33;5.57;;;8.00;99.90;;;;;;494036;241;29174;-72
2023/12/10 01:09:21;;;;;;;30.90;6.13;;;7.90;99.90;;;;;;494072;241;28483;-71
2023/12/10 01:11:22;;;;;;;35.00;6.67;;;7.90;99.90;;;;;;494075;241;28448;-72
2023/12/10 01:13:24;;;;;;;31.27;5.80;;;8.00;99.90;;;;;;494074;241;28115;-71
2023/12/10 01:15:31;;;;;;;37.80;5.60;;;8.00;99.90;;;;;;494072;237;28404;-72
2023/12/10 01:17:32;;;;;;;22.83;4.83;;;7.90;99.90;;;;;;494058;241;28276;-72
2023/12/10 01:19:33;;;;;;;20.83;4.53;;;8.00;99.90;;;;;;494033;241;28107;-72
2023/12/10 01:21:34;;;;;;;23.13;5.60;;;8.00;99.90;;;;;;494095;241;28136;-73
2023/12/10 01:23:36;;;;;;;22.47;6.03;;;8.00;99.90;;;;;;494093;241;27669;-71
2023/12/10 01:25:37;;;;;;;24.73;5.20;;;8.00;99.90;;;;;;494044;241;27592;-73
2023/12/10 01:27:38;;;;;;;25.87;5.00;;;8.00;99.90;;;;;;494093;241;27866;-72
2023/12/10 01:29:39;;;;;;;21.47;3.67;;;7.90;99.90;;;;;;494079;241;28017;-72
2023/12/10 01:31:41;;;;;;;21.80;5.07;;;7.90;99.90;;;;;;494077;241;27718;-73
2023/12/10 01:33:42;;;;;;;26.97;4.30;;;7.90;99.90;;;;;;494075;241;27937;-72
2023/12/10 01:35:43;;;;;;;24.83;4.67;;;7.90;99.90;;;;;;494042;241;27750;-72
2023/12/10 01:37:44;;;;;;;17.00;4.17;;;7.90;99.90;;;;;;494084;241;28062;-72
2023/12/10 01:39:45;;;;;;;17.00;4.20;;;7.90;99.90;;;;;;494079;241;28520;-71
2023/12/10 01:41:47;;;;;;;16.23;3.43;;;7.90;99.90;;;;;;494078;241;28549;-73
2023/12/10 01:43:48;;;;;;;19.57;3.80;;;7.90;99.90;;;;;;494071;241;28460;-72
2023/12/10 01:45:53;;;;;;;27.37;5.43;;;7.80;99.90;;;;;;494031;241;27631;-72
2023/12/10 01:47:51;;;;;;;11.10;4.07;;;7.80;99.90;;;;;;493787;241;27987;-72
2023/12/10 01:49:52;;;;;;;18.10;3.80;;;7.80;99.90;;;;;;493999;241;28064;-71
2023/12/10 01:51:53;;;;;;;14.03;3.67;;;7.80;99.90;;;;;;494043;241;27825;-72
2023/12/10 01:53:54;;;;;;;19.03;4.03;;;7.80;99.90;;;;;;494073;238;27969;-72
2023/12/10 01:55:55;;;;;;;20.93;3.67;;;7.80;99.90;;;;;;494019;241;27884;-72
2023/12/10 01:57:57;;;;;;;15.83;3.57;;;7.70;99.90;;;;;;494062;241;27967;-72
2023/12/10 01:59:58;;;;;;;25.07;3.77;;;7.70;99.90;;;;;;494034;241;28077;-72
2023/12/10 02:01:59;;;;;;;15.63;3.30;;;7.70;99.90;;;;;;494017;241;28051;-72
2023/12/10 02:04:00;;;;;;;22.43;4.40;;;7.70;99.90;;;;;;494045;237;28475;-72
2023/12/10 02:06:02;;;;;;;17.70;4.17;;;7.60;99.90;;;;;;494111;241;28296;-72
2023/12/10 02:08:03;;;;;;;13.60;4.20;;;7.60;99.90;;;;;;494092;241;28642;-72
2023/12/10 02:10:05;;;;;;;17.60;4.17;;;7.60;99.90;;;;;;494090;241;27901;-72
2023/12/10 02:12:06;;;;;;;18.90;4.23;;;7.60;99.90;;;;;;493821;241;27986;-72
2023/12/10 02:14:07;;;;;;;19.10;3.57;;;7.60;99.90;;;;;;494041;241;28852;-73
2023/12/10 02:16:08;;;;;;;25.55;4.45;;;7.60;99.90;;;;;;494019;241;28061;-72
2023/12/10 02:18:09;;;;;;;18.13;3.57;;;7.50;99.90;;;;;;494030;241;27622;-72
2023/12/10 02:20:14;;;;;;;20.50;4.73;;;7.50;99.90;;;;;;494015;241;27803;-72
2023/12/10 02:22:15;;;;;;;20.60;4.00;;;7.40;99.90;;;;;;494037;241;27923;-72
2023/12/10 02:24:16;;;;;;;14.87;3.00;;;7.50;99.90;;;;;;494000;239;28367;-72
2023/12/10 02:26:17;;;;;;;16.13;4.00;;;7.50;99.90;;;;;;494090;241;28285;-73
2023/12/10 02:28:22;;;;;;;20.93;4.20;;;7.50;99.90;;;;;;494049;241;28512;-72
2023/12/10 02:30:20;;;;;;;20.40;5.07;;;7.50;99.90;;;;;;493790;241;27983;-73
2023/12/10 02:32:21;;;;;;;25.07;4.37;;;7.50;99.90;;;;;;494064;241;27845;-72
2023/12/10 02:34:22;;;;;;;17.23;3.83;;;7.60;99.90;;;;;;494111;241;28040;-72
2023/12/10 02:36:23;;;;;;;22.70;4.27;;;7.60;99.90;;;;;;494031;241;27618;-73
2023/12/10 02:38:25;;;;;;;22.93;4.30;;;7.60;99.90;;;;;;494025;241;28789;-72
2023/12/10 02:40:26;;;;;;;27.03;5.43;;;7.60;99.90;;;;;;494063;241;27804;-72
2023/12/10 02:42:27;;;;;;;21.20;4.70;;;7.60;99.90;;;;;;494099;241;27960;-74
2023/12/10 02:44:28;;;;;;;21.83;4.47;;;7.60;99.90;;;;;;494095;241;27982;-72
2023/12/10 02:46:30;;;;;;;25.50;4.77;;;7.60;99.90;;;;;;494000;241;28108;-73
2023/12/10 02:48:31;;;;;;;29.27;5.57;;;7.60;99.90;;;;;;494079;241;28019;-72
2023/12/10 02:50:32;;;;;;;21.20;4.17;;;7.70;99.90;;;;;;494089;241;28510;-72
2023/12/10 02:52:33;;;;;;;26.47;4.43;;;7.60;99.90;;;;;;494016;241;28377;-74
2023/12/10 02:54:35;;;;;;;33.93;5.37;;;7.60;99.90;;;;;;494035;241;28493;-72
2023/12/10 02:56:36;;;;;;;20.93;3.83;;;7.60;99.90;;;;;;494038;241;28052;-72
2023/12/10 02:58:37;;;;;;;18.70;4.17;;;7.60;99.90;;;;;;494027;241;27993;-72
2023/12/10 03:00:38;;;;;;;29.63;5.30;;;7.60;99.90;;;;;;494028;241;27738;-72
2023/12/10 03:02:40;;;;;;;32.13;10.70;;;7.70;99.90;;;;;;494084;241;27857;-74
2023/12/10 03:04:41;;;;;;;25.40;8.97;;;7.70;99.90;;;;;;494005;241;27918;-72
2023/12/10 03:06:42;;;;;;;18.80;6.30;;;7.60;99.90;;;;;;493995;241;28942;-72
2023/12/10 03:08:43;;;;;;;25.80;4.90;;;7.60;99.90;;;;;;494014;241;28358;-73
2023/12/10 03:10:45;;;;;;;42.47;6.03;;;7.60;99.90;;;;;;494023;241;27946;-73
2023/12/10 03:12:46;;;;;;;15.07;4.40;;;7.60;99.90;;;;;;494072;241;28374;-73
2023/12/10 03:14:47;;;;;;;25.00;4.70;;;7.50;99.90;;;;;;494063;241;28294;-72
2023/12/10 03:16:48;;;;;;;20.70;4.00;;;7.50;99.90;;;;;;494066;241;28543;-72
2023/12/10 03:18:50;;;;;;;12.77;3.60;;;7.60;99.90;;;;;;494106;241;28629;-74
2023/12/10 03:20:51;;;;;;;29.85;4.55;;;7.60;99.90;;;;;;494095;241;27902;-72
2023/12/10 03:22:52;;;;;;;23.33;5.07;;;7.50;99.90;;;;;;494032;241;27485;-72
2023/12/10 03:24:53;;;;;;;20.73;4.67;;;7.50;99.90;;;;;;494018;241;27917;-72
2023/12/10 03:26:55;;;;;;;18.93;4.40;;;7.50;99.90;;;;;;494041;241;28063;-72
2023/12/10 03:28:56;;;;;;;14.50;3.70;;;7.50;99.90;;;;;;494110;241;27623;-73
2023/12/10 03:30:57;;;;;;;18.83;4.37;;;7.60;99.90;;;;;;494087;241;27948;-72
2023/12/10 03:32:58;;;;;;;29.77;5.97;;;7.60;99.90;;;;;;494029;241;27694;-72
2023/12/10 03:35:00;;;;;;;24.03;4.60;;;7.60;99.90;;;;;;494069;237;28679;-74
2023/12/10 03:37:01;;;;;;;23.73;4.50;;;7.50;99.90;;;;;;494086;241;28623;-72
2023/12/10 03:39:02;;;;;;;23.17;5.30;;;7.40;99.90;;;;;;494075;241;28416;-74
2023/12/10 03:41:03;;;;;;;20.13;4.57;;;7.50;99.90;;;;;;494090;237;27946;-72
2023/12/10 03:43:05;;;;;;;19.10;3.87;;;7.50;99.90;;;;;;494036;241;27944;-73
2023/12/10 03:45:06;;;;;;;21.97;4.07;;;7.40;99.90;;;;;;494070;237;27919;-73
2023/12/10 03:47:07;;;;;;;22.90;4.43;;;7.50;99.90;;;;;;494110;241;27989;-72
2023/12/10 03:49:08;;;;;;;20.67;4.13;;;7.50;99.90;;;;;;494115;241;28053;-73
2023/12/10 03:51:10;;;;;;;22.40;4.10;;;7.50;99.90;;;;;;494050;237;27886;-72
2023/12/10 03:53:11;;;;;;;26.70;4.50;;;7.50;99.90;;;;;;494013;241;28143;-72
2023/12/10 03:55:12;;;;;;;21.27;4.00;;;7.40;99.90;;;;;;494055;241;27951;-73
2023/12/10 03:57:13;;;;;;;21.47;3.83;;;7.40;99.90;;;;;;494069;241;27951;-72
2023/12/10 03:59:15;;;;;;;15.40;3.90;;;7.40;99.90;;;;;;494005;241;27990;-74
2023/12/10 04:01:17;;;;;;;22.03;5.63;;;7.50;99.90;;;;;;494033;241;29249;-72
2023/12/10 04:03:17;;;;;;;27.53;4.40;;;7.40;99.90;;;;;;493999;241;28286;-73
2023/12/10 04:05:20;;;;;;;17.67;4.77;;;7.50;99.90;;;;;;494025;241;28354;-73
2023/12/10 04:07:20;;;;;;;14.30;3.30;;;7.50;99.90;;;;;;493934;241;27939;-72
2023/12/10 04:09:21;;;;;;;20.10;4.30;;;7.40;99.90;;;;;;493961;237;28608;-72
2023/12/10 04:11:22;;;;;;;24.33;4.23;;;7.40;99.90;;;;;;494033;241;27724;-73
2023/12/10 04:13:23;;;;;;;22.10;4.47;;;7.40;99.90;;;;;;494020;241;27943;-72
2023/12/10 04:15:26;;;;;;;19.67;4.80;;;7.40;99.90;;;;;;494007;241;27891;-72
2023/12/10 04:17:26;;;;;;;18.97;3.80;;;7.40;99.90;;;;;;493923;241;28057;-72
2023/12/10 04:19:27;;;;;;;23.60;4.60;;;7.40;99.90;;;;;;494008;241;28424;-72
2023/12/10 04:21:29;;;;;;;24.00;5.60;;;7.40;99.90;;;;;;494041;241;27964;-73
2023/12/10 04:23:30;;;;;;;21.40;4.47;;;7.40;99.90;;;;;;494069;241;28033;-73
2023/12/10 04:25:31;;;;;;;13.43;3.57;;;7.40;99.90;;;;;;494093;241;28435;-72
2023/12/10 04:27:32;;;;;;;20.50;4.17;;;7.40;99.90;;;;;;494004;241;29188;-72
2023/12/10 04:29:33;;;;;;;22.43;4.53;;;7.40;99.90;;;;;;494085;241;28247;-72
2023/12/10 04:31:35;;;;;;;24.13;3.50;;;7.40;99.90;;;;;;494059;241;28811;-73
2023/12/10 04:33:36;;;;;;;19.77;4.43;;;7.40;99.90;;;;;;494061;241;27971;-72
2023/12/10 04:35:37;;;;;;;26.50;4.50;;;7.40;99.90;;;;;;494037;241;28181;-74
2023/12/10 04:37:38;;;;;;;23.40;4.47;;;7.40;99.90;;;;;;494027;241;28083;-72
2023/12/10 04:39:40;;;;;;;21.50;4.20;;;7.40;99.90;;;;;;494084;241;28015;-72
2023/12/10 04:41:41;;;;;;;29.40;5.40;;;7.40;99.90;;;;;;494077;241;28831;-73
2023/12/10 04:43:42;;;;;;;28.13;5.63;;;7.40;99.90;;;;;;494036;241;28485;-72
2023/12/10 04:45:44;;;;;;;33.60;6.97;;;7.40;99.90;;;;;;494049;241;27819;-72
2023/12/10 04:47:45;;;;;;;17.97;5.40;;;7.40;99.90;;;;;;494019;241;28071;-73
2023/12/10 04:49:46;;;;;;;23.97;4.60;;;7.40;99.90;;;;;;494024;241;27787;-73
2023/12/10 04:51:47;;;;;;;22.77;5.63;;;7.40;99.90;;;;;;493992;241;28905;-74
2023/12/10 04:53:49;;;;;;;16.23;4.07;;;7.40;99.90;;;;;;493993;241;29480;-72
2023/12/10 04:55:50;;;;;;;22.73;4.30;;;7.40;99.90;;;;;;493996;241;28503;-72
2023/12/10 04:57:51;;;;;;;25.87;4.80;;;7.40;99.90;;;;;;494058;241;28367;-73
2023/12/10 04:59:52;;;;;;;26.47;4.43;;;7.40;99.90;;;;;;494070;241;27610;-73
2023/12/10 05:01:54;;;;;;;20.77;4.18;;;7.40;99.90;;;;;;494028;241;28091;-74
2023/12/10 05:03:55;;;;;;;21.30;4.10;;;7.40;99.90;;;;;;494056;241;27573;-73
2023/12/10 05:05:56;;;;;;;23.90;4.80;;;7.40;99.90;;;;;;493995;241;28201;-72
2023/12/10 05:07:57;;;;;;;18.70;3.73;;;7.50;99.90;;;;;;494005;241;28631;-72
2023/12/10 05:09:59;;;;;;;24.03;3.60;;;7.50;99.90;;;;;;494052;241;27979;-72
2023/12/10 05:12:00;;;;;;;22.20;3.90;;;7.50;99.90;;;;;;494043;241;28423;-72
2023/12/10 05:14:01;;;;;;;27.63;4.67;;;7.50;99.90;;;;;;494060;241;28640;-74
2023/12/10 05:16:03;;;;;;;22.43;4.10;;;7.50;99.90;;;;;;494072;241;28302;-72
2023/12/10 05:18:04;;;;;;;19.80;4.47;;;7.50;99.90;;;;;;494029;241;28509;-74
2023/12/10 05:20:05;;;;;;;16.13;3.83;;;7.50;99.90;;;;;;494060;241;27943;-72
2023/12/10 05:22:06;;;;;;;24.47;4.80;;;7.40;99.90;;;;;;494041;241;27887;-73
2023/12/10 05:24:08;;;;;;;18.80;3.67;;;7.40;99.90;;;;;;494103;241;27944;-73
2023/12/10 05:26:09;;;;;;;23.10;4.23;;;7.40;99.90;;;;;;494020;239;27617;-72
2023/12/10 05:28:10;;;;;;;21.23;4.83;;;7.40;99.90;;;;;;494020;241;28059;-72
2023/12/10 05:30:11;;;;;;;19.03;4.10;;;7.40;99.90;;;;;;494078;241;27473;-72
2023/12/10 05:32:12;;;;;;;29.67;5.67;;;7.40;99.90;;;;;;494080;241;28103;-72
2023/12/10 05:34:14;;;;;;;20.10;4.20;;;7.30;99.90;;;;;;494098;237;27978;-73
2023/12/10 05:36:15;;;;;;;19.73;4.37;;;7.30;99.90;;;;;;494079;241;27933;-73
2023/12/10 05:38:16;;;;;;;20.70;3.80;;;7.30;99.90;;;;;;494071;241;28189;-72
2023/12/10 05:40:17;;;;;;;17.37;4.13;;;7.30;99.90;;;;;;494072;241;29740;-72
2023/12/10 05:42:19;;;;;;;20.03;3.97;;;7.30;99.90;;;;;;494069;241;28316;-72
2023/12/10 05:44:20;;;;;;;24.37;4.40;;;7.30;99.90;;;;;;494053;241;28444;-74
2023/12/10 05:46:21;;;;;;;13.33;3.47;;;7.30;99.90;;;;;;494111;241;27692;-72
2023/12/10 05:48:22;;;;;;;23.23;4.37;;;7.20;99.90;;;;;;493994;241;27977;-73
2023/12/10 05:50:24;;;;;;;17.65;3.75;;;7.20;99.90;;;;;;494033;241;28858;-73
2023/12/10 05:52:25;;;;;;;17.13;3.77;;;7.20;99.90;;;;;;494036;241;27467;-72
2023/12/10 05:54:26;;;;;;;17.30;3.87;;;7.10;99.90;;;;;;494088;240;28852;-73
2023/12/10 05:56:27;;;;;;;16.27;4.07;;;7.10;99.90;;;;;;494079;241;28721;-72
2023/12/10 05:58:29;;;;;;;15.17;3.83;;;7.10;99.90;;;;;;493951;241;28446;-73
2023/12/10 06:00:30;;;;;;;26.77;4.77;;;7.10;99.90;;;;;;494063;241;28420;-72
2023/12/10 06:02:31;;;;;;;16.60;3.77;;;7.00;99.90;;;;;;494096;241;29074;-72
2023/12/10 06:04:32;;;;;;;21.33;3.53;;;7.10;99.90;;;;;;494131;237;28849;-73
2023/12/10 06:06:34;;;;;;;16.73;3.23;;;7.00;99.90;;;;;;494140;241;28886;-73
2023/12/10 06:08:35;;;;;;;20.03;4.47;;;7.00;99.90;;;;;;494074;241;27937;-72
2023/12/10 06:10:36;;;;;;;23.03;4.20;;;7.00;99.90;;;;;;494123;241;28646;-73
2023/12/10 06:12:37;;;;;;;16.30;4.20;;;7.00;99.90;;;;;;494116;241;27958;-72
2023/12/10 06:14:39;;;;;;;23.50;4.05;;;7.00;99.90;;;;;;494109;241;28322;-72
2023/12/10 06:16:40;;;;;;;18.00;3.90;;;7.00;99.90;;;;;;494102;241;27525;-72
2023/12/10 06:18:41;;;;;;;24.40;3.73;;;7.00;99.90;;;;;;494135;241;28580;-72
2023/12/10 06:20:42;;;;;;;26.27;3.57;;;7.00;99.90;;;;;;494112;241;29295;-72
2023/12/10 06:22:44;;;;;;;35.33;4.55;;;7.00;99.90;;;;;;494065;241;28383;-72
2023/12/10 06:24:45;;;;;;;21.02;3.60;;;7.10;99.90;;;;;;494021;241;27529;-72
2023/12/10 06:26:46;;;;;;;23.23;3.70;;;7.00;99.90;;;;;;494049;241;27591;-74
2023/12/10 06:28:47;;;;;;;17.60;3.77;;;7.00;99.90;;;;;;493874;241;27516;-72
2023/12/10 06:30:49;;;;;;;16.37;3.57;;;7.10;99.90;;;;;;493896;241;28923;-72
2023/12/10 06:32:50;;;;;;;17.55;3.62;;;7.00;99.90;;;;;;494027;241;28794;-72
2023/12/10 06:34:52;;;;;;;15.65;3.37;;;7.10;99.90;;;;;;494037;241;28016;-72
2023/12/10 06:36:52;;;;;;;13.82;3.03;;;7.10;99.90;;;;;;494038;241;27501;-74
2023/12/10 06:38:54;;;;;;;17.35;4.10;;;7.10;99.90;;;;;;494092;241;27560;-72
2023/12/10 06:40:55;;;;;;;18.60;3.83;;;7.20;99.90;;;;;;494058;241;27560;-72
2023/12/10 06:42:56;;;;;;;17.95;3.78;;;7.20;99.90;;;;;;494090;241;27595;-72
2023/12/10 06:44:58;;;;;;;23.63;4.20;;;7.20;99.90;;;;;;494082;237;27912;-72
2023/12/10 06:46:59;;;;;;;24.35;4.70;;;7.10;99.90;;;;;;494057;241;29179;-73
2023/12/10 06:49:00;;;;;;;20.50;3.90;;;7.10;99.90;;;;;;494002;241;27464;-72
2023/12/10 06:51:01;;;;;;;16.53;3.60;;;7.10;99.90;;;;;;493961;241;28917;-72
2023/12/10 06:53:03;;;;;;;18.48;4.07;;;7.10;99.90;;;;;;494056;241;28411;-73
2023/12/10 06:55:04;;;;;;;19.05;3.62;;;7.10;99.90;;;;;;494009;237;27554;-72
2023/12/10 06:57:05;;;;;;;16.40;3.40;;;7.10;99.90;;;;;;494004;241;27580;-73
2023/12/10 06:59:07;;;;;;;20.13;4.33;;;7.20;99.90;;;;;;494095;241;27467;-72
2023/12/10 07:01:08;;;;;;;15.30;3.30;;;7.20;99.90;;;;;;494024;241;28480;-72
2023/12/10 07:03:09;;;;;;;23.60;4.00;;;7.20;99.90;;;;;;494035;241;28347;-75
2023/12/10 07:05:10;;;;;;;23.60;3.28;;;7.20;99.90;;;;;;494037;241;27446;-72
2023/12/10 07:07:11;;;;;;;17.73;4.20;;;7.20;99.90;;;;;;494016;241;27585;-73
2023/12/10 07:09:13;;;;;;;20.10;3.55;;;7.20;99.90;;;;;;494027;241;27540;-73
2023/12/10 07:11:14;;;;;;;19.13;2.90;;;7.20;99.90;;;;;;494063;241;27551;-72
2023/12/10 07:13:15;;;;;;;16.90;4.00;;;7.20;99.90;;;;;;494024;241;28790;-72
2023/12/10 07:15:17;;;;;;;23.00;3.70;;;7.20;99.90;;;;;;494077;241;29255;-72
2023/12/10 07:17:18;;;;;;;19.80;3.72;;;7.30;99.90;;;;;;494009;241;28512;-73
2023/12/10 07:19:19;;;;;;;18.10;3.57;;;7.30;99.90;;;;;;494064;241;27512;-75
2023/12/10 07:21:20;;;;;;;21.77;3.97;;;7.30;99.90;;;;;;494097;241;28512;-72
2023/12/10 07:23:21;;;;;;;23.17;4.37;;;7.40;99.90;;;;;;494046;241;27965;-73
2023/12/10 07:25:23;;;;;;;26.08;3.55;;;7.40;99.90;;;;;;493992;241;28621;-72
2023/12/10 07:27:24;;;;;;;20.50;3.80;;;7.30;99.90;;;;;;494064;241;27508;-72
2023/12/10 07:29:26;;;;;;;24.60;4.00;;;7.40;99.90;;;;;;494094;241;27968;-73
2023/12/10 07:31:26;;;;;;;22.73;5.63;;;7.30;99.90;;;;;;494033;241;28152;-72
2023/12/10 07:33:28;;;;;;;26.10;4.17;;;7.40;99.90;;;;;;494020;241;28416;-72
2023/12/10 07:35:29;;;;;;;16.93;4.23;;;7.40;99.90;;;;;;494053;241;28849;-72
2023/12/10 07:37:30;;;;;;;23.70;4.27;;;7.40;99.90;;;;;;494021;241;27963;-73
2023/12/10 07:39:31;;;;;;;15.10;3.40;;;7.40;99.90;;;;;;493996;241;27850;-73
2023/12/10 07:41:33;;;;;;;14.53;3.70;;;7.40;99.90;;;;;;494009;241;27920;-72
2023/12/10 07:43:34;;;;;;;18.53;4.00;;;7.40;99.90;;;;;;493998;237;27875;-72
2023/12/10 07:45:35;;;;;;;12.43;3.60;;;7.40;99.90;;;;;;494036;241;28583;-74
2023/12/10 07:47:36;;;;;;;18.97;3.90;;;7.30;99.90;;;;;;494031;241;27870;-72
2023/12/10 07:49:38;;;;;;;18.20;3.77;;;7.40;99.90;;;;;;494021;241;27889;-73
2023/12/10 07:51:39;;;;;;;18.90;4.00;;;7.30;99.90;;;;;;494056;237;27818;-72
2023/12/10 07:53:42;;;;;;;22.13;3.60;;;7.30;99.90;;;;;;494008;241;28523;-72
2023/12/10 07:55:41;;;;;;;20.17;3.83;;;7.40;99.90;;;;;;493923;241;28659;-74
2023/12/10 07:57:43;;;;;;;23.13;5.10;;;7.40;99.90;;;;;;494035;241;28360;-72
2023/12/10 07:59:44;;;;;;;13.53;3.43;;;7.40;99.90;;;;;;493999;241;28016;-73
2023/12/10 08:01:45;;;;;;;21.13;3.90;;;7.40;99.90;;;;;;494004;241;27923;-72
2023/12/10 08:03:46;;;;;;;18.53;3.90;;;7.40;99.90;;;;;;494090;241;28106;-73
2023/12/10 08:05:48;;;;;;;24.53;5.30;;;7.50;99.90;;;;;;494083;241;27952;-74
2023/12/10 08:07:49;;;;;;;14.70;3.60;;;7.50;99.90;;;;;;494081;241;27732;-73
2023/12/10 08:09:53;;;;;;;15.83;3.63;;;7.50;99.90;;;;;;493968;241;27862;-74
2023/12/10 08:11:51;;;;;;;24.17;5.30;;;7.50;99.90;;;;;;493812;241;27740;-76
2023/12/10 08:13:53;;;;;;;17.33;4.33;;;7.50;99.90;;;;;;494069;241;27936;-72
2023/12/10 08:15:54;;;;;;;11.33;3.83;;;7.50;99.90;;;;;;494036;241;27851;-73
2023/12/10 08:17:55;;;;;;;23.53;4.37;;;7.60;99.90;;;;;;493997;241;28015;-72
2023/12/10 08:19:56;;;;;;;20.33;3.97;;;7.60;99.90;;;;;;494006;241;28493;-73
2023/12/10 08:21:58;;;;;;;15.10;3.87;;;7.60;99.90;;;;;;494088;241;28573;-74
2023/12/10 08:23:59;;;;;;;13.93;3.40;;;7.60;99.90;;;;;;493999;241;28452;-72
2023/12/10 08:26:00;;;;;;;11.03;3.33;;;7.60;99.90;;;;;;493975;241;27945;-73
2023/12/10 08:28:02;;;;;;;17.63;3.70;;;7.60;99.90;;;;;;493980;241;27917;-72
2023/12/10 08:30:03;;;;;;;15.00;3.30;;;7.60;99.90;;;;;;493987;241;27621;-73
2023/12/10 08:32:04;;;;;;;11.60;3.07;;;7.60;99.90;;;;;;494037;241;27840;-73
2023/12/10 08:34:05;;;;;;;14.80;3.30;;;7.60;99.90;;;;;;493990;241;27918;-73
2023/12/10 08:36:06;;;;;;;23.47;3.63;;;7.60;99.90;;;;;;494028;241;27948;-73
2023/12/10 08:38:08;;;;;;;26.40;4.00;;;7.60;99.90;;;;;;494010;241;28030;-72
2023/12/10 08:40:09;;;;;;;20.50;4.10;;;7.60;99.90;;;;;;494052;237;27821;-73
2023/12/10 08:42:10;;;;;;;14.20;3.10;;;7.70;99.90;;;;;;493998;237;27762;-73
2023/12/10 08:44:11;;;;;;;21.03;4.07;;;7.70;99.90;;;;;;494065;241;28515;-72
2023/12/10 08:46:13;;;;;;;25.27;3.90;;;7.70;99.90;;;;;;494072;241;29308;-72
2023/12/10 08:48:14;;;;;;;16.40;4.10;;;7.70;99.90;;;;;;494056;241;28805;-74
2023/12/10 08:50:15;;;;;;;16.00;3.67;;;7.70;99.90;;;;;;494080;241;27831;-73
2023/12/10 08:52:16;;;;;;;18.97;4.17;;;7.70;99.90;;;;;;494065;241;28061;-74
2023/12/10 08:54:18;;;;;;;17.50;4.70;;;7.70;99.90;;;;;;494115;241;28161;-73
2023/12/10 08:56:19;;;;;;;16.67;3.97;;;7.70;99.90;;;;;;494088;241;28099;-73
2023/12/10 08:58:21;;;;;;;21.13;3.73;;;7.70;99.90;;;;;;494097;241;28089;-74
2023/12/10 09:00:22;;;;;;;17.17;4.50;;;7.70;99.90;;;;;;494102;241;27952;-72
2023/12/10 09:02:23;;;;;;;18.87;4.03;;;7.70;99.90;;;;;;494112;241;28082;-73
2023/12/10 09:04:24;;;;;;;19.93;4.67;;;7.80;99.90;;;;;;494084;241;27936;-72
2023/12/10 09:06:25;;;;;;;18.97;5.50;;;7.80;99.90;;;;;;494063;241;27969;-73
2023/12/10 09:08:27;;;;;;;15.63;4.73;;;7.80;99.90;;;;;;494069;241;28436;-74
2023/12/10 09:10:28;;;;;;;20.00;4.27;;;7.80;99.90;;;;;;494115;241;28505;-73
2023/12/10 09:12:29;;;;;;;20.37;4.73;;;7.80;99.90;;;;;;494054;241;28447;-72
2023/12/10 09:14:30;;;;;;;31.17;9.27;;;7.80;99.90;;;;;;494033;241;29220;-73
2023/12/10 09:16:32;;;;;;;19.43;5.10;;;7.80;99.90;;;;;;494063;241;27786;-73
2023/12/10 09:18:33;;;;;;;17.90;4.10;;;7.80;99.90;;;;;;494015;241;27963;-73
2023/12/10 09:20:34;;;;;;;21.83;4.90;;;7.80;99.90;;;;;;494011;241;27672;-72
2023/12/10 09:22:35;;;;;;;23.83;4.70;;;7.80;99.90;;;;;;494003;241;27869;-72
2023/12/10 09:24:37;;;;;;;16.03;3.57;;;7.70;99.90;;;;;;494032;241;28429;-71
2023/12/10 09:26:38;;;;;;;15.90;3.40;;;7.70;99.90;;;;;;494100;241;27927;-72
2023/12/10 09:28:39;;;;;;;20.70;4.20;;;7.70;99.90;;;;;;493981;241;28064;-72
2023/12/10 09:30:40;;;;;;;18.00;4.50;;;7.70;99.90;;;;;;493997;241;28062;-72
2023/12/10 09:32:42;;;;;;;19.90;4.60;;;7.70;99.90;;;;;;493987;237;27986;-72
2023/12/10 09:34:43;;;;;;;20.23;4.93;;;7.80;99.90;;;;;;494031;241;28474;-75
2023/12/10 09:36:44;;;;;;;16.20;4.50;;;7.80;99.90;;;;;;494011;241;27810;-72
2023/12/10 09:38:45;;;;;;;28.30;4.30;;;7.80;99.90;;;;;;494004;241;27720;-72
2023/12/10 09:40:47;;;;;;;30.47;5.07;;;7.80;99.90;;;;;;494000;241;27793;-72
2023/12/10 09:42:48;;;;;;;30.37;4.30;;;7.80;99.90;;;;;;494017;237;27692;-72
2023/12/10 09:44:49;;;;;;;19.83;4.20;;;7.80;99.90;;;;;;494064;241;27973;-73
2023/12/10 09:46:50;;;;;;;15.23;3.20;;;7.80;99.90;;;;;;494078;241;27927;-72
2023/12/10 09:48:52;;;;;;;17.03;3.93;;;7.80;99.90;;;;;;494063;241;28431;-72
2023/12/10 09:50:53;;;;;;;20.07;5.17;;;7.90;99.90;;;;;;494036;241;28618;-72
2023/12/10 09:52:54;;;;;;;23.83;3.73;;;7.90;99.90;;;;;;494061;241;28270;-72
2023/12/10 09:54:56;;;;;;;13.47;3.27;;;7.90;99.90;;;;;;494062;241;27501;-73
2023/12/10 09:56:57;;;;;;;22.90;4.80;;;7.80;99.90;;;;;;494050;241;27808;-72
2023/12/10 09:58:58;;;;;;;20.00;3.70;;;7.80;99.90;;;;;;494022;241;27605;-72
2023/12/10 10:01:04;;;;;;;20.23;3.70;;;7.80;99.90;;;;;;493993;241;28287;-74
2023/12/10 10:03:01;;;;;;;18.40;3.33;;;7.80;99.90;;;;;;493584;241;27946;-72
2023/12/10 10:05:02;;;;;;;17.30;3.40;;;7.80;99.90;;;;;;493810;239;28015;-73
2023/12/10 10:07:03;;;;;;;17.23;3.40;;;7.90;99.90;;;;;;493669;241;27903;-72
2023/12/10 10:09:04;;;;;;;11.10;3.03;;;7.90;99.90;;;;;;493871;241;27734;-73
2023/12/10 10:11:05;;;;;;;17.83;3.67;;;7.90;99.90;;;;;;494028;241;27942;-73
2023/12/10 10:13:07;;;;;;;15.87;3.83;;;7.90;99.90;;;;;;493997;241;28423;-72
2023/12/10 10:15:08;;;;;;;19.20;3.43;;;7.90;99.90;;;;;;494079;241;28522;-73
2023/12/10 10:17:09;;;;;;;21.00;4.10;;;7.80;99.90;;;;;;494031;241;28611;-72
2023/12/10 10:19:11;;;;;;;12.43;3.67;;;7.80;99.90;;;;;;494068;241;28463;-72
2023/12/10 10:21:12;;;;;;;18.70;4.50;;;7.80;99.90;;;;;;494024;241;27980;-73
2023/12/10 10:23:13;;;;;;;16.70;3.77;;;7.80;99.90;;;;;;494025;241;28059;-72
2023/12/10 10:25:14;;;;;;;19.03;3.80;;;7.80;99.90;;;;;;494080;241;28002;-73
2023/12/10 10:27:15;;;;;;;15.30;4.03;;;7.80;99.90;;;;;;494054;241;27833;-72
2023/12/10 10:29:17;;;;;;;19.73;3.53;;;7.80;99.90;;;;;;494042;241;27678;-72
2023/12/10 10:31:18;;;;;;;20.87;4.20;;;7.80;99.90;;;;;;494034;241;27503;-73